createdAt,value
2023-04-02T00:00:37.282Z,10.15
2023-04-02T00:03:26.132Z,10.18
2023-04-02T00:05:56.304Z,10.22
2023-04-02T00:08:27.657Z,10.23
2023-04-02T00:11:02.193Z,10.19
2023-04-02T00:13:43.826Z,10.16
2023-04-02T00:16:17.187Z,10.09
2023-04-02T00:18:55.857Z,10.11
2023-04-02T00:21:32.501Z,9.99
2023-04-02T00:24:07.224Z,10.02
2023-04-02T00:26:44.653Z,10.05
2023-04-02T00:29:16.285Z,10.07
2023-04-02T00:31:53.102Z,10.08
2023-04-02T00:34:39.899Z,10.08
2023-04-02T00:37:24.114Z,10.06
2023-04-02T00:40:06.395Z,10.00
2023-04-02T00:42:38.511Z,9.91
2023-04-02T00:45:19.986Z,9.81
2023-04-02T00:47:49.009Z,9.81
2023-04-02T00:50:35.489Z,9.77
2023-04-02T00:53:29.396Z,9.71
2023-04-02T00:55:59.510Z,9.57
2023-04-02T00:58:37.200Z,9.58
2023-04-02T01:01:19.461Z,9.50
2023-04-02T01:04:00.529Z,9.46
2023-04-02T01:06:39.348Z,9.48
2023-04-02T01:09:28.380Z,9.41
2023-04-02T01:12:26.540Z,9.34
2023-04-02T01:15:21.569Z,9.36
2023-04-02T01:18:26.875Z,9.38
2023-04-02T01:21:53.075Z,9.37
2023-04-02T01:24:24.845Z,9.38
2023-04-02T01:27:03.544Z,9.43
2023-04-02T01:29:40.507Z,9.48
2023-04-02T01:32:16.861Z,9.52
2023-04-02T01:34:50.903Z,9.53
2023-04-02T01:37:57.729Z,9.50
2023-04-02T01:41:22.834Z,9.46
2023-04-02T01:44:03.263Z,9.43
2023-04-02T01:46:35.342Z,9.46
2023-04-02T01:49:16.300Z,9.49
2023-04-02T01:51:51.965Z,9.55
2023-04-02T01:54:23.278Z,9.61
2023-04-02T01:56:52.279Z,9.58
2023-04-02T01:59:22.818Z,9.58
2023-04-02T02:02:09.500Z,9.57
2023-04-02T02:04:40.839Z,9.52
2023-04-02T02:07:21.254Z,9.55
2023-04-02T02:09:53.702Z,9.55
2023-04-02T02:12:23.197Z,9.55
2023-04-02T02:14:52.718Z,9.55
2023-04-02T02:17:34.683Z,9.54
2023-04-02T02:20:09.429Z,9.53
2023-04-02T02:22:43.783Z,9.54
2023-04-02T02:25:26.463Z,9.54
2023-04-02T02:28:29.841Z,9.47
2023-04-02T02:31:18.726Z,9.45
2023-04-02T02:33:53.442Z,9.42
2023-04-02T02:36:33.756Z,9.43
2023-04-02T02:39:21.722Z,9.42
2023-04-02T02:41:56.395Z,9.42
2023-04-02T02:44:35.353Z,9.36
2023-04-02T02:47:19.195Z,9.32
2023-04-02T02:49:54.393Z,9.30
2023-04-02T02:52:29.335Z,9.33
2023-04-02T02:55:19.060Z,9.37
2023-04-02T02:58:34.506Z,9.37
2023-04-02T03:01:18.966Z,9.31
2023-04-02T03:03:50.358Z,9.34
2023-04-02T03:06:20.981Z,9.34
2023-04-02T03:09:23.038Z,9.34
2023-04-02T03:12:31.806Z,9.29
2023-04-02T03:15:35.725Z,9.33
2023-04-02T03:18:18.223Z,9.36
2023-04-02T03:20:57.083Z,9.33
2023-04-02T03:23:46.180Z,9.35
2023-04-02T03:26:49.136Z,9.36
2023-04-02T03:29:29.775Z,9.34
2023-04-02T03:32:34.708Z,9.40
2023-04-02T03:35:33.296Z,9.43
2023-04-02T03:38:17.004Z,9.45
2023-04-02T03:41:16.618Z,9.41
2023-04-02T03:43:54.975Z,9.40
2023-04-02T03:46:36.184Z,9.38
2023-04-02T03:49:25.777Z,9.36
2023-04-02T03:52:12.302Z,9.37
2023-04-02T03:54:54.109Z,9.39
2023-04-02T03:57:40.850Z,9.38
2023-04-02T04:00:23.573Z,9.40
2023-04-02T04:03:05.322Z,9.38
2023-04-02T04:05:48.466Z,9.36
2023-04-02T04:08:20.603Z,9.38
2023-04-02T04:11:02.140Z,9.34
2023-04-02T04:14:10.000Z,9.33
2023-04-02T04:17:15.975Z,9.31
2023-04-02T04:19:52.054Z,9.29
2023-04-02T04:22:34.121Z,9.26
2023-04-02T04:25:34.043Z,9.27
2023-04-02T04:28:29.624Z,9.26
2023-04-02T04:31:09.322Z,9.29
2023-04-02T04:33:47.376Z,9.27
2023-04-02T04:36:29.400Z,9.29
2023-04-02T04:39:14.751Z,9.26
2023-04-02T04:41:48.420Z,9.27
2023-04-02T04:44:48.617Z,9.28
2023-04-02T04:48:01.716Z,9.24
2023-04-02T04:50:45.811Z,9.31
2023-04-02T04:53:21.325Z,9.38
2023-04-02T04:56:05.934Z,9.37
2023-04-02T04:58:53.486Z,9.38
2023-04-02T05:02:06.551Z,9.42
2023-04-02T05:04:42.561Z,9.46
2023-04-02T05:07:23.741Z,9.47
2023-04-02T05:10:18.663Z,9.46
2023-04-02T05:13:22.205Z,9.48
2023-04-02T05:16:01.857Z,9.44
2023-04-02T05:19:07.103Z,9.39
2023-04-02T05:22:18.567Z,9.43
2023-04-02T05:25:15.996Z,9.40
2023-04-02T05:28:00.665Z,9.39
2023-04-02T05:30:29.400Z,9.27
2023-04-02T05:33:18.039Z,9.31
2023-04-02T05:35:51.614Z,9.27
2023-04-02T05:38:25.878Z,9.17
2023-04-02T05:41:27.282Z,9.17
2023-04-02T05:44:27.120Z,9.17
2023-04-02T05:47:15.201Z,9.18
2023-04-02T05:50:11.322Z,9.22
2023-04-02T05:52:57.587Z,9.17
2023-04-02T05:55:39.050Z,9.22
2023-04-02T05:58:35.326Z,9.17
2023-04-02T06:01:37.570Z,9.23
2023-04-02T06:04:29.084Z,9.17
2023-04-02T06:07:09.077Z,9.11
2023-04-02T06:09:51.246Z,9.17
2023-04-02T06:12:45.600Z,9.20
2023-04-02T06:15:23.737Z,9.20
2023-04-02T06:18:09.073Z,9.22
2023-04-02T06:20:41.554Z,9.28
2023-04-02T06:23:12.411Z,9.29
2023-04-02T06:25:55.765Z,9.27
2023-04-02T06:28:42.279Z,9.22
2023-04-02T06:31:36.927Z,9.21
2023-04-02T06:34:16.397Z,9.25
2023-04-02T06:36:55.083Z,9.20
2023-04-02T06:39:27.950Z,9.20
2023-04-02T06:42:13.485Z,9.19
2023-04-02T06:45:00.974Z,9.21
2023-04-02T06:47:43.985Z,9.11
2023-04-02T06:50:43.427Z,9.23
2023-04-02T06:53:31.121Z,9.26
2023-04-02T06:56:24.307Z,9.23
2023-04-02T06:58:53.974Z,9.22
2023-04-02T07:01:29.460Z,9.17
2023-04-02T07:03:59.982Z,9.15
2023-04-02T07:06:34.070Z,9.19
2023-04-02T07:09:04.866Z,9.20
2023-04-02T07:11:35.618Z,9.16
2023-04-02T07:14:06.795Z,9.16
2023-04-02T07:16:36.942Z,9.21
2023-04-02T07:19:06.028Z,9.18
2023-04-02T07:21:39.266Z,9.10
2023-04-02T07:24:08.496Z,9.18
2023-04-02T07:26:38.269Z,9.17
2023-04-02T07:29:09.560Z,9.15
2023-04-02T07:31:39.458Z,9.15
2023-04-02T07:34:09.891Z,9.19
2023-04-02T07:36:38.725Z,9.19
2023-04-02T07:39:07.398Z,9.22
2023-04-02T07:41:52.499Z,9.28
2023-04-02T07:44:21.257Z,9.33
2023-04-02T07:46:49.987Z,9.35
2023-04-02T07:49:18.868Z,9.39
2023-04-02T07:51:47.734Z,9.38
2023-04-02T07:54:16.583Z,9.37
2023-04-02T07:56:45.434Z,9.36
2023-04-02T07:59:14.208Z,9.39
2023-04-02T08:01:43.343Z,9.47
2023-04-02T08:04:22.910Z,9.49
2023-04-02T08:06:53.069Z,9.52
2023-04-02T08:09:22.186Z,9.53
2023-04-02T08:11:50.974Z,9.49
2023-04-02T08:14:19.654Z,9.55
2023-04-02T08:16:54.174Z,9.58
2023-04-02T08:19:23.160Z,9.64
2023-04-02T08:21:52.093Z,9.65
2023-04-02T08:24:21.870Z,9.71
2023-04-02T08:26:51.742Z,9.64
2023-04-02T08:29:21.881Z,9.72
2023-04-02T08:31:50.734Z,9.73
2023-04-02T08:34:19.457Z,9.80
2023-04-02T08:36:48.193Z,9.81
2023-04-02T08:39:17.094Z,9.96
2023-04-02T08:42:01.453Z,9.99
2023-04-02T08:44:50.710Z,9.99
2023-04-02T08:47:21.782Z,10.05
2023-04-02T08:50:02.996Z,10.13
2023-04-02T08:52:36.957Z,10.16
2023-04-02T08:55:33.041Z,10.23
2023-04-02T08:58:44.407Z,10.21
2023-04-02T09:01:49.614Z,10.33
2023-04-02T09:04:22.861Z,10.48
2023-04-02T09:06:55.529Z,10.54
2023-04-02T09:09:25.677Z,10.53
2023-04-02T09:12:00.934Z,10.74
2023-04-02T09:14:54.951Z,10.83
2023-04-02T09:17:26.535Z,10.76
2023-04-02T09:20:19.737Z,10.80
2023-04-02T09:22:51.509Z,10.98
2023-04-02T09:25:34.492Z,11.01
2023-04-02T09:28:05.314Z,11.06
2023-04-02T09:31:34.645Z,10.95
2023-04-02T09:34:32.958Z,11.23
2023-04-02T09:37:16.450Z,11.23
2023-04-02T09:39:45.774Z,11.26
2023-04-02T09:42:34.319Z,11.28
2023-04-02T09:45:23.564Z,11.23
2023-04-02T09:47:54.419Z,11.31
2023-04-02T09:50:27.637Z,11.35
2023-04-02T09:52:56.483Z,11.35
2023-04-02T09:55:31.306Z,11.37
2023-04-02T09:58:17.515Z,11.43
2023-04-02T10:00:54.412Z,11.43
2023-04-02T10:03:33.068Z,11.53
2023-04-02T10:06:14.612Z,11.63
2023-04-02T10:08:45.757Z,11.64
2023-04-02T10:11:24.323Z,11.62
2023-04-02T10:14:09.988Z,11.67
2023-04-02T10:16:52.259Z,11.69
2023-04-02T10:19:44.380Z,11.80
2023-04-02T10:22:19.637Z,11.91
2023-04-02T10:24:49.787Z,11.96
2023-04-02T10:27:29.976Z,12.06
2023-04-02T10:30:50.735Z,12.12
2023-04-02T10:33:30.333Z,12.24
2023-04-02T10:36:21.523Z,12.27
2023-04-02T10:39:14.149Z,12.33
2023-04-02T10:42:20.072Z,12.45
2023-04-02T10:45:06.901Z,12.52
2023-04-02T10:47:59.626Z,12.44
2023-04-02T10:50:41.625Z,12.68
2023-04-02T10:53:23.483Z,12.75
2023-04-02T10:56:03.643Z,12.94
2023-04-02T10:58:38.899Z,13.22
2023-04-02T11:01:17.183Z,13.35
2023-04-02T11:03:58.116Z,13.37
2023-04-02T11:06:33.087Z,13.44
2023-04-02T11:09:06.663Z,13.55
2023-04-02T11:11:42.188Z,13.65
2023-04-02T11:14:25.225Z,13.74
2023-04-02T11:16:58.992Z,13.95
2023-04-02T11:19:34.969Z,14.14
2023-04-02T11:22:25.823Z,14.22
2023-04-02T11:24:57.392Z,14.25
2023-04-02T11:27:34.180Z,14.43
2023-04-02T11:30:18.284Z,14.57
2023-04-02T11:32:52.188Z,14.78
2023-04-02T11:35:33.341Z,14.81
2023-04-02T11:38:22.867Z,14.77
2023-04-02T11:41:02.237Z,14.88
2023-04-02T11:43:33.976Z,15.02
2023-04-02T11:46:06.864Z,15.13
2023-04-02T11:48:37.066Z,14.82
2023-04-02T11:51:21.450Z,14.57
2023-04-02T11:53:53.971Z,14.15
2023-04-02T11:56:52.832Z,14.02
2023-04-02T11:59:47.228Z,13.98
2023-04-02T12:02:34.057Z,13.76
2023-04-02T12:05:17.950Z,13.83
2023-04-02T12:08:57.940Z,13.76
2023-04-02T12:11:36.815Z,13.85
2023-04-02T12:14:43.130Z,13.84
2023-04-02T12:17:44.003Z,13.71
2023-04-02T12:20:21.650Z,13.58
2023-04-02T12:22:54.307Z,13.47
2023-04-02T12:25:40.507Z,13.59
2023-04-02T12:28:20.804Z,13.40
2023-04-02T12:30:52.166Z,13.43
2023-04-02T12:33:21.096Z,13.44
2023-04-02T12:35:55.634Z,13.21
2023-04-02T12:38:29.054Z,12.99
2023-04-02T12:41:01.442Z,12.94
2023-04-02T12:43:36.975Z,12.98
2023-04-02T12:46:08.505Z,12.94
2023-04-02T12:48:39.445Z,12.89
2023-04-02T12:51:08.353Z,12.73
2023-04-02T12:53:40.465Z,12.68
2023-04-02T12:56:19.139Z,12.53
2023-04-02T12:59:00.601Z,12.56
2023-04-02T13:01:32.093Z,12.63
2023-04-02T13:04:15.410Z,12.63
2023-04-02T13:06:52.292Z,12.56
2023-04-02T13:09:36.302Z,12.56
2023-04-02T13:12:05.814Z,12.60
2023-04-02T13:14:34.720Z,12.51
2023-04-02T13:17:03.499Z,12.54
2023-04-02T13:19:34.276Z,12.57
2023-04-02T13:22:04.643Z,12.70
2023-04-02T13:24:33.623Z,12.63
2023-04-02T13:27:04.117Z,12.56
2023-04-02T13:29:36.509Z,12.51
2023-04-02T13:32:12.322Z,12.56
2023-04-02T13:34:41.008Z,12.46
2023-04-02T13:37:13.364Z,12.59
2023-04-02T13:39:42.212Z,12.38
2023-04-02T13:42:11.907Z,12.29
2023-04-02T13:44:41.931Z,12.24
2023-04-02T13:47:15.109Z,12.15
2023-04-02T13:49:43.906Z,12.04
2023-04-02T13:52:16.716Z,11.92
2023-04-02T13:55:00.820Z,11.97
2023-04-02T13:57:29.642Z,11.83
2023-04-02T13:59:58.547Z,11.89
2023-04-02T14:02:27.673Z,11.87
2023-04-02T14:05:13.716Z,11.80
2023-04-02T14:08:09.260Z,11.79
2023-04-02T14:11:07.371Z,11.74
2023-04-02T14:13:51.337Z,11.63
2023-04-02T14:16:42.660Z,11.59
2023-04-02T14:19:21.190Z,11.50
2023-04-02T14:22:30.553Z,11.43
2023-04-02T14:25:07.832Z,11.40
2023-04-02T14:28:01.371Z,11.37
2023-04-02T14:30:59.109Z,11.34
2023-04-02T14:34:17.463Z,11.32
2023-04-02T14:37:23.660Z,11.29
2023-04-02T14:40:14.664Z,11.26
2023-04-02T14:42:46.210Z,11.27
2023-04-02T14:45:31.149Z,11.15
2023-04-02T14:48:09.024Z,11.23
2023-04-02T14:50:42.851Z,11.27
2023-04-02T14:53:31.147Z,11.27
2023-04-02T14:56:02.504Z,11.25
2023-04-02T14:58:40.207Z,11.21
2023-04-02T15:01:20.712Z,11.23
2023-04-02T15:04:15.761Z,11.21
2023-04-02T15:06:47.729Z,11.24
2023-04-02T15:09:31.559Z,11.22
2023-04-02T15:12:09.252Z,11.19
2023-04-02T15:14:45.909Z,11.20
2023-04-02T15:17:14.777Z,11.13
2023-04-02T15:19:43.521Z,11.14
2023-04-02T15:22:37.682Z,11.18
2023-04-02T15:25:38.079Z,11.21
2023-04-02T15:28:17.835Z,11.21
2023-04-02T15:30:52.626Z,11.24
2023-04-02T15:33:36.059Z,11.27
2023-04-02T15:36:35.543Z,11.27
2023-04-02T15:39:28.306Z,11.27
2023-04-02T15:42:08.906Z,11.26
2023-04-02T15:44:54.110Z,11.22
2023-04-02T15:47:57.756Z,11.22
2023-04-02T15:50:50.579Z,11.15
2023-04-02T15:53:44.890Z,11.14
2023-04-02T15:57:07.578Z,11.09
2023-04-02T16:00:06.791Z,11.02
2023-04-02T16:02:58.741Z,11.02
2023-04-02T16:05:50.230Z,10.95
2023-04-02T16:08:44.194Z,10.88
2023-04-02T16:11:15.439Z,10.81
2023-04-02T16:13:44.282Z,10.83
2023-04-02T16:16:19.131Z,10.82
2023-04-02T16:19:05.970Z,10.83
2023-04-02T16:22:12.069Z,10.85
2023-04-02T16:24:40.865Z,10.84
2023-04-02T16:27:23.785Z,10.80
2023-04-02T16:30:01.145Z,10.76
2023-04-02T16:32:43.265Z,10.75
2023-04-02T16:38:12.088Z,10.71
2023-04-02T16:41:08.665Z,10.73
2023-04-02T16:43:56.090Z,10.71
2023-04-02T16:46:54.380Z,10.63
2023-04-02T16:49:48.060Z,10.63
2023-04-02T16:52:33.720Z,10.65
2023-04-02T16:55:14.633Z,10.62
2023-04-02T16:58:00.819Z,10.58
2023-04-02T17:00:53.165Z,10.59
2023-04-02T17:04:08.997Z,10.56
2023-04-02T17:06:44.961Z,10.58
2023-04-02T17:09:35.718Z,10.56
2023-04-02T17:12:41.493Z,10.56
2023-04-02T17:15:32.089Z,10.51
2023-04-02T17:18:02.229Z,10.50
2023-04-02T17:20:31.344Z,10.49
2023-04-02T17:23:02.764Z,10.44
2023-04-02T17:25:40.109Z,10.42
2023-04-02T17:28:15.344Z,10.38
2023-04-02T17:30:49.699Z,10.41
2023-04-02T17:33:19.536Z,10.42
2023-04-02T17:36:01.259Z,10.41
2023-04-02T17:39:03.261Z,10.41
2023-04-02T17:41:53.629Z,10.43
2023-04-02T17:44:43.511Z,10.41
2023-04-02T17:47:54.178Z,10.42
2023-04-02T17:50:44.171Z,10.40
2023-04-02T17:53:54.532Z,10.35
2023-04-02T17:56:38.388Z,10.35
2023-04-02T17:59:29.080Z,10.36
2023-04-02T18:02:10.677Z,10.31
2023-04-02T18:04:53.940Z,10.35
2023-04-02T18:07:47.744Z,10.38
2023-04-02T18:10:31.649Z,10.37
2023-04-02T18:13:24.166Z,10.38
2023-04-02T18:16:28.051Z,10.37
2023-04-02T18:19:23.089Z,10.30
2023-04-02T18:22:15.650Z,10.25
2023-04-02T18:25:04.692Z,10.18
2023-04-02T18:28:15.993Z,10.22
2023-04-02T18:31:17.205Z,10.19
2023-04-02T18:33:57.666Z,10.22
2023-04-02T18:36:52.107Z,10.27
2023-04-02T18:39:30.927Z,10.28
2023-04-02T18:42:14.286Z,10.30
2023-04-02T18:44:42.772Z,10.26
2023-04-02T18:47:57.487Z,10.22
2023-04-02T18:50:39.343Z,10.17
2023-04-02T18:53:14.595Z,10.10
2023-04-02T18:55:50.797Z,10.03
2023-04-02T18:58:49.981Z,9.97
2023-04-02T19:01:36.547Z,9.94
2023-04-02T19:04:15.062Z,9.87
2023-04-02T19:06:48.693Z,9.80
2023-04-02T19:09:31.290Z,9.77
2023-04-02T19:12:00.352Z,9.72
2023-04-02T19:14:30.172Z,9.69
2023-04-02T19:17:22.878Z,9.62
2023-04-02T19:20:13.003Z,9.54
2023-04-02T19:22:50.844Z,9.46
2023-04-02T19:25:30.347Z,9.40
2023-04-02T19:28:27.856Z,9.39
2023-04-02T19:31:11.915Z,9.33
2023-04-02T19:33:43.049Z,9.33
2023-04-02T19:36:36.727Z,9.28
2023-04-02T19:39:17.253Z,9.25
2023-04-02T19:42:02.620Z,9.23
2023-04-02T19:44:31.286Z,9.16
2023-04-02T19:47:00.127Z,9.10
2023-04-02T19:49:34.778Z,9.07
2023-04-02T19:52:03.785Z,9.05
2023-04-02T19:54:32.471Z,9.00
2023-04-02T19:57:03.195Z,8.95
2023-04-02T19:59:33.615Z,8.94
2023-04-02T20:02:06.131Z,8.87
2023-04-02T20:04:34.857Z,8.89
2023-04-02T20:07:03.609Z,8.89
2023-04-02T20:09:32.341Z,8.90
2023-04-02T20:12:01.231Z,8.90
2023-04-02T20:14:30.005Z,8.86
2023-04-02T20:16:58.820Z,8.86
2023-04-02T20:19:27.569Z,8.86
2023-04-02T20:21:56.626Z,8.83
2023-04-02T20:24:25.570Z,8.84
2023-04-02T20:26:54.342Z,8.81
2023-04-02T20:29:24.728Z,8.78
2023-04-02T20:31:53.421Z,8.77
2023-04-02T20:34:22.401Z,8.76
2023-04-02T20:36:51.240Z,8.72
2023-04-02T20:39:20.596Z,8.70
2023-04-02T20:41:49.442Z,8.68
2023-04-02T20:44:18.148Z,8.64
2023-04-02T20:46:47.014Z,8.58
2023-04-02T20:49:15.702Z,8.57
2023-04-02T20:51:44.612Z,8.51
2023-04-02T20:54:13.299Z,8.47
2023-04-02T20:56:43.261Z,8.42
2023-04-02T20:59:12.246Z,8.33
2023-04-02T21:01:40.996Z,8.30
2023-04-02T21:04:09.816Z,8.29
2023-04-02T21:06:39.658Z,8.25
2023-04-02T21:09:15.289Z,8.26
2023-04-02T21:11:44.803Z,8.23
2023-04-02T21:14:13.560Z,8.20
2023-04-02T21:16:42.333Z,8.22
2023-04-02T21:19:11.334Z,8.22
2023-04-02T21:21:40.815Z,8.21
2023-04-02T21:24:10.184Z,8.16
2023-04-02T21:26:41.671Z,8.15
2023-04-02T21:29:12.162Z,8.13
2023-04-02T21:31:42.202Z,8.12
2023-04-02T21:34:16.029Z,8.11
2023-04-02T21:36:47.459Z,8.11
2023-04-02T21:39:24.249Z,8.06
2023-04-02T21:41:53.794Z,8.04
2023-04-02T21:44:24.227Z,8.04
2023-04-02T21:46:54.148Z,8.03
2023-04-02T21:49:23.706Z,7.97
2023-04-02T21:51:52.714Z,7.97
2023-04-02T21:54:21.576Z,7.96
2023-04-02T21:56:50.560Z,7.88
2023-04-02T21:59:19.525Z,7.89
2023-04-02T22:01:51.251Z,7.85
2023-04-02T22:04:26.147Z,7.84
2023-04-02T22:06:55.017Z,7.88
2023-04-02T22:09:26.790Z,7.87
2023-04-02T22:12:01.954Z,7.85
2023-04-02T22:14:30.916Z,7.81
2023-04-02T22:16:59.856Z,7.84
2023-04-02T22:19:28.631Z,7.85
2023-04-02T22:21:57.407Z,7.82
2023-04-02T22:24:26.180Z,7.81
2023-04-02T22:26:54.892Z,7.79
2023-04-02T22:29:23.720Z,7.76
2023-04-02T22:31:52.419Z,7.77
2023-04-02T22:34:21.429Z,7.76
2023-04-02T22:36:50.184Z,7.75
2023-04-02T22:39:18.911Z,7.71
2023-04-02T22:41:47.642Z,7.71
2023-04-02T22:44:16.549Z,7.72
2023-04-02T22:46:45.216Z,7.68
2023-04-02T22:49:19.507Z,7.66
2023-04-02T22:51:48.523Z,7.64
2023-04-02T22:54:17.358Z,7.66
2023-04-02T22:56:46.210Z,7.67
2023-04-02T22:59:15.062Z,7.60
2023-04-02T23:01:43.953Z,7.59
2023-04-02T23:04:12.924Z,7.58
2023-04-02T23:06:41.626Z,7.54
2023-04-02T23:09:10.533Z,7.52
2023-04-02T23:11:39.307Z,7.50
2023-04-02T23:14:08.054Z,7.48
2023-04-02T23:16:36.727Z,7.50
2023-04-02T23:19:05.437Z,7.55
2023-04-02T23:21:34.196Z,7.49
2023-04-02T23:24:02.937Z,7.52
2023-04-02T23:26:31.813Z,7.48
2023-04-02T23:29:02.043Z,7.53
2023-04-02T23:31:30.907Z,7.56
2023-04-02T23:33:59.680Z,7.52
2023-04-02T23:36:34.843Z,7.49
2023-04-02T23:39:10.996Z,7.57
2023-04-02T23:41:42.505Z,7.59
2023-04-02T23:44:11.365Z,7.60
2023-04-02T23:46:40.131Z,7.58
2023-04-02T23:49:12.695Z,7.57
2023-04-02T23:51:41.639Z,7.58
2023-04-02T23:54:12.140Z,7.51
2023-04-02T23:56:41.856Z,7.54
2023-04-02T23:59:10.556Z,7.51
